Time;durP1;ratioP1;P1;durP2;ratioP2;P2;SDS_P1;SDS_P2;PMS_P1;PMS_P2;Temp;Humidity;BMP_temperature;BMP_pressure;BME280_temperature;BME280_humidity;BME280_pressure;Samples;Min_cycle;Max_cycle;Signal;HPM_P1;HPM_P2
2022/04/28 00:01:48;;;;;;;6.90;3.10;;;7.50;86.60;;;;;;4959458;28;20019;-68
2022/04/28 00:04:14;;;;;;;5.38;3.58;;;7.50;86.00;;;;;;4955487;28;20491;-66
2022/04/28 00:06:39;;;;;;;6.97;3.97;;;7.40;86.20;;;;;;4955858;28;20062;-67
2022/04/28 00:09:06;;;;;;;6.22;3.97;;;7.40;86.30;;;;;;4960924;28;20129;-67
2022/04/28 00:11:33;;;;;;;5.97;4.20;;;7.40;87.90;;;;;;4959542;28;20038;-68
2022/04/28 00:13:59;;;;;;;7.18;4.32;;;7.40;88.20;;;;;;4958836;28;20027;-67
2022/04/28 00:16:26;;;;;;;7.10;4.43;;;7.40;88.90;;;;;;4960036;28;20027;-68
2022/04/28 00:18:52;;;;;;;6.00;4.13;;;7.40;89.00;;;;;;4961423;28;20031;-68
2022/04/28 00:21:17;;;;;;;7.82;4.30;;;7.40;87.70;;;;;;4962158;28;20497;-68
2022/04/28 00:23:43;;;;;;;5.47;3.75;;;7.40;87.20;;;;;;4962571;28;20033;-67
2022/04/28 00:26:09;;;;;;;6.68;3.80;;;7.40;86.90;;;;;;4959147;28;20559;-67
2022/04/28 00:28:35;;;;;;;4.40;3.55;;;7.30;86.80;;;;;;4960708;28;20034;-67
2022/04/28 00:31:01;;;;;;;8.50;4.35;;;7.30;87.50;;;;;;4947616;28;20034;-67
2022/04/28 00:33:27;;;;;;;7.20;3.95;;;7.20;88.30;;;;;;4966120;28;20027;-65
2022/04/28 00:35:54;;;;;;;6.28;4.38;;;7.20;88.30;;;;;;4962241;28;20034;-67
2022/04/28 00:38:20;;;;;;;8.02;3.95;;;7.20;88.70;;;;;;4963224;28;20031;-67
2022/04/28 00:40:45;;;;;;;4.57;3.58;;;7.20;89.00;;;;;;4947740;28;20057;-67
2022/04/28 00:43:20;;;;;;;6.20;3.38;;;7.30;88.10;;;;;;4944387;28;20237;-67
2022/04/28 00:45:47;;;;;;;6.25;4.15;;;7.30;87.20;;;;;;4958609;28;20041;-67
2022/04/28 00:51:01;;;;;;;5.70;3.45;;;7.40;86.00;;;;;;4944391;28;20388;-68
2022/04/28 00:53:29;;;;;;;3.72;3.08;;;7.40;84.90;;;;;;4948727;28;20031;-68
2022/04/28 00:55:56;;;;;;;5.38;3.45;;;7.40;84.80;;;;;;4961236;28;20086;-68
2022/04/28 00:58:22;;;;;;;5.25;3.45;;;7.30;85.10;;;;;;4948561;28;20038;-67
2022/04/28 01:00:48;;;;;;;7.22;3.22;;;7.30;84.70;;;;;;4945365;28;20034;-68
2022/04/28 01:03:14;;;;;;;5.43;3.33;;;7.30;83.90;;;;;;4938582;28;20082;-67
2022/04/28 01:05:41;;;;;;;4.35;3.20;;;7.30;84.30;;;;;;4937627;28;20031;-68
2022/04/28 01:08:08;;;;;;;4.13;3.35;;;7.30;84.60;;;;;;4943487;28;20101;-67
2022/04/28 01:10:35;;;;;;;5.32;3.38;;;7.30;85.00;;;;;;4947757;28;20114;-69
2022/04/28 01:13:01;;;;;;;4.55;3.70;;;7.20;84.80;;;;;;4944161;28;20073;-68
2022/04/28 01:15:28;;;;;;;4.88;3.88;;;7.20;84.80;;;;;;4945910;28;20113;-67
2022/04/28 01:17:54;;;;;;;6.40;3.80;;;7.20;85.80;;;;;;4946013;28;20142;-68
2022/04/28 01:20:20;;;;;;;6.75;3.70;;;7.20;86.50;;;;;;4946604;28;20282;-68
2022/04/28 01:22:46;;;;;;;6.93;3.67;;;7.10;85.80;;;;;;4947879;28;20156;-67
2022/04/28 01:25:13;;;;;;;5.85;3.88;;;7.10;85.80;;;;;;4940580;28;20085;-67
2022/04/28 01:27:39;;;;;;;4.88;3.85;;;7.00;86.00;;;;;;4943880;28;20034;-67
2022/04/28 01:30:14;;;;;;;5.85;3.80;;;6.90;86.40;;;;;;4958277;28;20051;-68
2022/04/28 01:32:44;;;;;;;5.57;3.92;;;6.90;87.20;;;;;;4946123;28;20032;-68
2022/04/28 01:35:10;;;;;;;8.35;3.90;;;6.80;87.10;;;;;;4947246;28;20090;-67
2022/04/28 01:37:36;;;;;;;6.88;4.65;;;6.80;86.50;;;;;;4943424;28;20034;-67
2022/04/28 01:40:11;;;;;;;6.20;4.20;;;6.80;86.60;;;;;;4946193;28;20035;-68
2022/04/28 01:42:41;;;;;;;9.73;4.95;;;6.70;87.10;;;;;;4946777;28;20443;-67
2022/04/28 01:45:08;;;;;;;7.35;4.15;;;6.80;87.30;;;;;;4938933;28;20042;-68
2022/04/28 01:47:40;;;;;;;6.95;4.03;;;6.70;87.50;;;;;;4941078;28;20027;-67
2022/04/28 01:50:20;;;;;;;5.63;3.72;;;6.60;87.90;;;;;;4938481;28;20034;-67
2022/04/28 01:56:13;;;;;;;7.88;4.13;;;6.60;87.10;;;;;;4942199;28;20055;-67
2022/04/28 01:58:48;;;;;;;9.73;3.95;;;6.50;87.30;;;;;;4941236;28;20073;-68
2022/04/28 02:01:29;;;;;;;5.40;3.75;;;6.50;87.60;;;;;;4941963;28;20035;-67
2022/04/28 02:03:55;;;;;;;6.82;4.18;;;6.40;88.40;;;;;;4938323;28;20038;-68
2022/04/28 02:06:21;;;;;;;6.93;4.75;;;6.40;89.60;;;;;;4940449;28;20486;-68
2022/04/28 02:08:47;;;;;;;6.47;4.75;;;6.40;90.20;;;;;;4942697;28;20039;-68
2022/04/28 02:11:15;;;;;;;8.40;4.95;;;6.30;90.20;;;;;;4945608;28;20054;-68
2022/04/28 02:14:03;;;;;;;7.63;5.05;;;6.30;90.00;;;;;;4959030;28;20046;-67
2022/04/28 02:16:55;;;;;;;9.40;5.15;;;6.30;90.20;;;;;;4945869;28;20515;-67
2022/04/28 02:19:27;;;;;;;7.30;5.03;;;6.30;90.60;;;;;;4941166;28;20050;-68
2022/04/28 02:21:54;;;;;;;10.05;6.25;;;6.30;90.80;;;;;;4933306;28;20443;-68
2022/04/28 02:24:19;;;;;;;10.55;6.22;;;6.30;90.90;;;;;;4946434;28;20495;-68
2022/04/28 02:26:45;;;;;;;11.65;7.00;;;6.30;91.20;;;;;;4946104;28;20090;-67
2022/04/28 02:29:11;;;;;;;10.00;6.35;;;6.30;91.40;;;;;;4958909;28;20034;-68
2022/04/28 02:31:39;;;;;;;12.82;6.47;;;6.30;91.60;;;;;;4946266;28;20347;-68
2022/04/28 02:34:05;;;;;;;11.02;6.22;;;6.30;91.70;;;;;;4940452;28;20039;-67
2022/04/28 02:36:37;;;;;;;10.20;5.45;;;6.30;91.60;;;;;;4939165;28;20483;-67
2022/04/28 02:39:03;;;;;;;9.30;5.53;;;6.30;91.30;;;;;;4952438;28;20467;-67
2022/04/28 02:41:30;;;;;;;12.82;6.55;;;6.20;91.10;;;;;;4940797;28;20053;-67
2022/04/28 02:43:57;;;;;;;14.65;6.63;;;6.20;91.20;;;;;;4940944;28;20383;-67
2022/04/28 02:46:23;;;;;;;11.13;6.03;;;6.20;91.50;;;;;;4945217;28;20030;-68
2022/04/28 02:49:02;;;;;;;9.18;6.43;;;6.20;91.70;;;;;;4945785;28;20026;-68
2022/04/28 02:51:33;;;;;;;15.00;6.55;;;6.20;92.00;;;;;;4942753;28;20059;-67
2022/04/28 02:53:59;;;;;;;10.80;6.05;;;6.10;92.00;;;;;;4940242;28;20070;-68
2022/04/28 02:56:25;;;;;;;12.52;7.70;;;6.10;92.10;;;;;;4936498;28;20034;-67
2022/04/28 02:58:52;;;;;;;17.98;8.05;;;6.10;92.20;;;;;;4957205;28;20046;-67
2022/04/28 03:01:17;;;;;;;14.55;6.72;;;6.10;92.30;;;;;;4947422;28;20480;-67
2022/04/28 03:03:43;;;;;;;12.60;7.40;;;6.10;92.30;;;;;;4939125;28;20038;-67
2022/04/28 03:11:38;;;;;;;8.40;6.03;;;6.10;92.20;;;;;;4953159;28;20034;-67
2022/04/28 03:14:04;;;;;;;8.77;5.40;;;6.00;91.70;;;;;;4941700;28;20097;-68
2022/04/28 03:16:31;;;;;;;14.98;6.38;;;6.00;91.50;;;;;;4957893;28;20031;-68
2022/04/28 03:19:03;;;;;;;9.25;5.53;;;5.90;91.40;;;;;;4944799;28;20668;-67
2022/04/28 03:21:30;;;;;;;8.27;5.47;;;5.90;91.30;;;;;;4947290;28;20027;-67
2022/04/28 03:23:56;;;;;;;10.73;5.63;;;5.80;91.10;;;;;;4946013;28;20055;-67
2022/04/28 03:26:22;;;;;;;8.95;5.10;;;5.70;91.20;;;;;;4963263;28;20459;-68
2022/04/28 03:28:48;;;;;;;10.27;5.43;;;5.70;91.30;;;;;;4930440;28;20030;-68
2022/04/28 03:31:14;;;;;;;12.35;6.20;;;5.70;91.40;;;;;;4944549;28;20033;-67
2022/04/28 03:34:22;;;;;;;12.10;6.90;;;5.70;91.70;;;;;;4903558;29;20040;-68
2022/04/28 03:36:51;;;;;;;14.63;7.35;;;5.70;92.10;;;;;;4904575;29;20040;-68
2022/04/28 03:39:20;;;;;;;12.55;6.43;;;5.70;92.50;;;;;;4933477;28;20045;-68
2022/04/28 03:41:46;;;;;;;11.15;6.63;;;5.70;92.60;;;;;;4943174;28;20126;-68
2022/04/28 03:44:11;;;;;;;13.75;7.13;;;5.80;92.60;;;;;;4962517;28;20037;-68
2022/04/28 03:46:38;;;;;;;12.85;8.18;;;5.70;92.50;;;;;;4948481;28;20550;-67
2022/04/28 03:49:04;;;;;;;13.45;7.60;;;5.80;92.60;;;;;;4949461;28;20085;-67
2022/04/28 03:51:30;;;;;;;12.35;7.65;;;5.80;92.80;;;;;;4963850;28;20027;-67
2022/04/28 03:54:00;;;;;;;12.68;7.03;;;5.80;92.80;;;;;;4944200;28;20046;-67
2022/04/28 03:56:30;;;;;;;12.05;6.65;;;5.80;92.50;;;;;;4948464;28;20023;-68
2022/04/28 03:58:58;;;;;;;10.52;6.95;;;5.80;91.90;;;;;;4939849;28;20031;-67
2022/04/28 04:01:24;;;;;;;9.60;6.22;;;5.70;91.70;;;;;;4949194;28;20033;-67
2022/04/28 04:04:09;;;;;;;11.05;6.82;;;5.60;91.80;;;;;;4949348;28;20038;-68
2022/04/28 04:06:41;;;;;;;8.77;6.18;;;5.60;91.80;;;;;;4949283;28;20033;-67
2022/04/28 04:09:36;;;;;;;13.45;6.72;;;5.60;92.00;;;;;;4950413;28;20039;-68
2022/04/28 04:12:06;;;;;;;12.30;7.18;;;5.60;92.10;;;;;;4948829;28;20519;-67
2022/04/28 04:14:44;;;;;;;14.07;7.18;;;5.60;92.10;;;;;;4947734;28;20125;-67
2022/04/28 04:17:12;;;;;;;16.33;8.98;;;5.70;92.20;;;;;;4947731;28;20136;-67
2022/04/28 04:19:38;;;;;;;15.38;8.13;;;5.80;92.40;;;;;;4948481;28;20065;-67
2022/04/28 04:22:04;;;;;;;13.88;8.23;;;5.90;92.60;;;;;;4947414;28;20026;-67
2022/04/28 04:24:31;;;;;;;16.65;9.65;;;5.90;92.70;;;;;;4945267;28;20023;-67
2022/04/28 04:26:58;;;;;;;15.45;8.68;;;6.10;92.80;;;;;;4947996;28;20034;-68
2022/04/28 04:29:42;;;;;;;16.05;9.25;;;6.20;92.70;;;;;;4963036;28;20114;-67
2022/04/28 04:32:17;;;;;;;15.57;9.32;;;6.30;92.60;;;;;;4945356;28;20066;-68
2022/04/28 04:35:01;;;;;;;;;;;6.40;92.50;;;;;;4945263;28;20030;-68
2022/04/28 04:37:38;;;;;;;13.48;8.43;;;6.50;92.40;;;;;;4947306;28;19914;-67
2022/04/28 04:40:04;;;;;;;17.52;9.02;;;6.60;92.30;;;;;;4947524;28;20026;-68
2022/04/28 04:42:30;;;;;;;16.33;8.95;;;6.70;92.20;;;;;;4964179;28;20090;-67
2022/04/28 04:44:58;;;;;;;15.52;8.55;;;6.80;92.10;;;;;;4944896;28;20126;-68
2022/04/28 04:47:27;;;;;;;17.35;9.20;;;6.90;92.00;;;;;;4949251;28;20033;-67
2022/04/28 04:50:09;;;;;;;14.50;9.73;;;7.00;91.90;;;;;;4946790;28;20035;-67
2022/04/28 04:52:58;;;;;;;12.18;7.85;;;7.10;91.80;;;;;;4949226;28;20502;-67
2022/04/28 04:55:26;;;;;;;12.63;8.73;;;7.20;91.60;;;;;;4946873;28;20523;-67
2022/04/28 04:57:59;;;;;;;16.02;9.80;;;7.30;91.50;;;;;;4947623;28;20567;-67
2022/04/28 05:00:25;;;;;;;14.82;8.40;;;7.40;91.30;;;;;;4948319;28;20027;-67
2022/04/28 05:03:23;;;;;;;15.13;9.52;;;7.60;91.10;;;;;;4917482;28;20089;-67
2022/04/28 05:06:01;;;;;;;18.25;9.50;;;7.70;90.90;;;;;;4960436;28;20637;-68
2022/04/28 05:08:33;;;;;;;14.90;8.63;;;7.90;90.70;;;;;;4960541;28;20026;-68
2022/04/28 05:11:02;;;;;;;15.77;9.02;;;8.10;90.20;;;;;;4946160;28;20082;-68
2022/04/28 05:13:28;;;;;;;16.90;8.88;;;8.30;89.70;;;;;;4941272;28;20574;-68
2022/04/28 05:15:56;;;;;;;14.75;7.70;;;8.50;89.20;;;;;;4947445;28;20054;-67
2022/04/28 05:18:31;;;;;;;18.38;9.05;;;8.70;88.80;;;;;;4943022;28;20143;-68
2022/04/28 05:21:15;;;;;;;16.45;8.77;;;9.00;88.70;;;;;;4947418;28;20027;-68
2022/04/28 05:24:07;;;;;;;14.93;8.20;;;9.30;87.30;;;;;;4957785;28;20035;-68
2022/04/28 05:26:44;;;;;;;11.38;8.18;;;9.70;85.80;;;;;;4960918;28;20090;-68
2022/04/28 05:29:28;;;;;;;11.38;7.50;;;10.20;84.20;;;;;;4963386;28;20092;-68
2022/04/28 05:32:06;;;;;;;14.05;6.93;;;11.10;81.00;;;;;;4966312;28;20045;-68
2022/04/28 05:34:50;;;;;;;13.68;6.93;;;12.40;76.40;;;;;;4961684;28;20503;-66
2022/04/28 05:37:19;;;;;;;10.00;6.80;;;13.60;72.30;;;;;;4963049;28;20037;-66
2022/04/28 05:39:46;;;;;;;9.98;6.53;;;14.70;68.30;;;;;;4945491;28;20026;-66
2022/04/28 05:42:12;;;;;;;10.43;7.07;;;15.60;64.60;;;;;;4961142;28;20042;-66
2022/04/28 05:47:24;;;;;;;21.50;7.28;;;16.90;59.10;;;;;;4943631;28;20035;-66
2022/04/28 05:49:52;;;;;;;13.07;7.53;;;18.20;54.80;;;;;;4941435;28;20029;-66
2022/04/28 05:52:18;;;;;;;14.55;7.60;;;19.10;52.10;;;;;;4957314;28;20833;-66
2022/04/28 05:54:46;;;;;;;22.90;7.43;;;19.80;50.00;;;;;;4948183;28;20137;-66
2022/04/28 05:57:12;;;;;;;14.52;6.97;;;20.10;48.70;;;;;;4943990;28;20189;-66
2022/04/28 05:59:39;;;;;;;16.65;7.50;;;19.50;49.40;;;;;;4943437;28;20030;-66
2022/04/28 06:02:35;;;;;;;12.35;7.53;;;18.60;50.60;;;;;;4944837;28;20047;-66
2022/04/28 06:05:04;;;;;;;13.60;7.25;;;17.90;53.30;;;;;;4945082;28;20022;-66
2022/04/28 06:07:30;;;;;;;12.73;7.65;;;17.40;52.40;;;;;;4952514;28;20474;-66
2022/04/28 06:09:57;;;;;;;12.60;7.18;;;17.10;54.20;;;;;;4945493;28;20031;-66
2022/04/28 06:12:29;;;;;;;8.55;6.55;;;18.00;52.60;;;;;;4948154;28;20558;-66
2022/04/28 06:15:10;;;;;;;13.30;6.90;;;20.20;48.60;;;;;;4957055;28;20062;-66
2022/04/28 06:17:56;;;;;;;11.20;6.97;;;22.30;42.80;;;;;;4942910;28;20037;-66
2022/04/28 06:20:22;;;;;;;12.35;7.28;;;21.80;42.70;;;;;;4955004;28;20110;-66
2022/04/28 06:22:51;;;;;;;13.05;6.63;;;20.70;44.20;;;;;;4960152;28;20035;-66
2022/04/28 06:25:16;;;;;;;13.45;6.82;;;19.60;47.10;;;;;;4944365;28;20027;-68
2022/04/28 06:27:46;;;;;;;12.15;7.38;;;18.80;48.80;;;;;;4945069;28;20142;-66
2022/04/28 06:30:12;;;;;;;7.00;5.80;;;18.20;50.40;;;;;;4944652;28;20035;-66
2022/04/28 06:32:38;;;;;;;11.32;7.18;;;18.10;51.20;;;;;;4941729;28;20062;-66
2022/04/28 06:35:19;;;;;;;10.23;7.07;;;18.60;50.70;;;;;;4942785;28;20832;-67
2022/04/28 06:37:45;;;;;;;14.45;6.97;;;19.50;47.90;;;;;;4947026;28;20097;-66
2022/04/28 06:40:12;;;;;;;8.85;6.72;;;19.50;47.90;;;;;;4946845;28;20027;-67
2022/04/28 06:42:43;;;;;;;11.05;6.45;;;19.20;48.10;;;;;;4960531;28;20034;-66
2022/04/28 06:46:11;;;;;;;11.27;6.88;;;18.70;49.10;;;;;;4909298;29;20044;-66
2022/04/28 06:48:47;;;;;;;11.57;7.10;;;18.10;50.60;;;;;;4960197;28;20035;-66
2022/04/28 06:51:31;;;;;;;9.05;6.63;;;17.70;52.50;;;;;;4962156;28;20046;-66
2022/04/28 06:54:17;;;;;;;10.82;7.40;;;17.40;53.00;;;;;;4942465;28;20031;-66
2022/04/28 06:56:45;;;;;;;11.30;7.20;;;17.40;53.00;;;;;;4963548;28;20039;-67
2022/04/28 06:59:14;;;;;;;10.80;7.43;;;17.40;52.50;;;;;;4939146;28;20747;-67
2022/04/28 07:01:43;;;;;;;12.23;8.13;;;17.40;52.00;;;;;;4945168;28;20027;-68
2022/04/28 07:04:10;;;;;;;15.00;8.27;;;17.00;52.90;;;;;;4945472;28;20041;-67
2022/04/28 07:06:35;;;;;;;11.13;7.10;;;16.50;54.40;;;;;;4944035;28;20487;-68
2022/04/28 07:09:01;;;;;;;14.48;8.43;;;16.10;55.40;;;;;;4946367;28;20089;-68
2022/04/28 07:11:27;;;;;;;12.93;7.57;;;16.50;55.70;;;;;;4945825;28;20086;-66
2022/04/28 07:14:01;;;;;;;11.25;6.88;;;18.40;51.90;;;;;;4946049;28;20023;-67
2022/04/28 07:17:02;;;;;;;10.30;6.80;;;19.80;47.60;;;;;;4955772;28;20715;-67
2022/04/28 07:19:35;;;;;;;14.48;8.20;;;19.80;48.40;;;;;;4945565;28;20015;-67
2022/04/28 07:22:05;;;;;;;12.13;7.35;;;19.90;47.40;;;;;;4949203;28;20025;-67
2022/04/28 07:24:32;;;;;;;8.15;6.05;;;20.80;45.50;;;;;;4946350;28;20061;-67
2022/04/28 07:26:59;;;;;;;10.82;6.45;;;22.90;42.80;;;;;;4947465;28;20129;-67
2022/04/28 07:29:25;;;;;;;10.40;5.53;;;24.20;38.50;;;;;;4951180;28;20030;-67
2022/04/28 07:32:05;;;;;;;12.10;6.65;;;24.30;37.10;;;;;;4949451;28;20035;-67
2022/04/28 07:34:49;;;;;;;7.95;5.55;;;24.70;37.80;;;;;;4961064;28;20041;-66
2022/04/28 07:37:33;;;;;;;10.32;5.63;;;26.00;36.30;;;;;;4961351;28;20534;-66
2022/04/28 07:40:36;;;;;;;10.25;4.55;;;28.50;32.60;;;;;;4908201;29;20028;-67
2022/04/28 07:43:08;;;;;;;8.80;4.15;;;30.80;30.00;;;;;;4940923;28;20065;-67
2022/04/28 07:45:34;;;;;;;10.90;3.28;;;31.50;28.80;;;;;;4949616;28;20215;-67
2022/04/28 07:48:06;;;;;;;8.85;4.18;;;31.20;28.70;;;;;;4949006;28;20035;-67
2022/04/28 07:50:32;;;;;;;8.77;4.55;;;29.80;29.40;;;;;;4945366;28;20030;-67
2022/04/28 07:53:10;;;;;;;7.30;4.30;;;29.10;29.70;;;;;;4942218;28;20115;-66
2022/04/28 07:55:36;;;;;;;10.05;5.00;;;29.10;30.20;;;;;;4961231;28;20134;-68
2022/04/28 07:58:02;;;;;;;12.38;5.47;;;28.40;30.60;;;;;;4931905;28;20023;-68
2022/04/28 08:00:58;;;;;;;12.27;5.43;;;28.20;31.00;;;;;;4962857;28;20054;-68
2022/04/28 08:03:23;;;;;;;6.85;4.05;;;27.00;31.50;;;;;;4949454;28;20034;-68
2022/04/28 08:05:53;;;;;;;7.38;5.03;;;26.00;33.40;;;;;;4941675;28;20029;-68
2022/04/28 08:08:20;;;;;;;8.45;5.05;;;25.30;34.90;;;;;;4961694;28;20590;-68
2022/04/28 08:10:47;;;;;;;9.90;5.30;;;24.60;35.90;;;;;;4949505;28;20090;-66
2022/04/28 08:13:15;;;;;;;9.90;5.40;;;24.10;36.80;;;;;;4947857;28;20600;-67
2022/04/28 08:15:43;;;;;;;8.38;4.90;;;23.80;37.40;;;;;;4963788;28;20034;-67
2022/04/28 08:18:09;;;;;;;12.48;5.13;;;24.30;36.20;;;;;;4947452;28;20034;-67
2022/04/28 08:20:40;;;;;;;8.60;4.88;;;25.20;34.50;;;;;;4943897;28;20022;-67
2022/04/28 08:23:06;;;;;;;8.32;4.43;;;26.20;33.70;;;;;;4949166;28;20085;-68
2022/04/28 08:25:32;;;;;;;9.38;4.25;;;26.00;33.20;;;;;;4948067;28;20034;-67
2022/04/28 08:27:58;;;;;;;7.60;4.35;;;25.10;34.70;;;;;;4949380;28;20034;-67
2022/04/28 08:30:24;;;;;;;7.68;4.88;;;24.70;34.30;;;;;;4962587;28;20142;-67
2022/04/28 08:32:51;;;;;;;8.25;4.30;;;24.50;34.60;;;;;;4944832;28;20100;-67
2022/04/28 08:35:18;;;;;;;10.52;5.22;;;24.20;35.20;;;;;;4947925;28;20360;-67
2022/04/28 08:37:43;;;;;;;11.40;5.00;;;24.30;34.80;;;;;;4946513;28;20031;-67
2022/04/28 08:40:10;;;;;;;9.20;4.55;;;25.90;33.70;;;;;;4964931;28;20031;-68
2022/04/28 08:42:37;;;;;;;11.80;5.50;;;27.30;32.20;;;;;;4942575;28;20119;-67
2022/04/28 08:45:15;;;;;;;11.02;4.82;;;29.00;29.90;;;;;;4946103;28;20058;-67
2022/04/28 08:47:42;;;;;;;7.15;4.60;;;31.00;28.60;;;;;;4960561;28;20684;-67
2022/04/28 08:50:25;;;;;;;5.90;3.75;;;32.20;27.30;;;;;;4941797;28;20038;-70
2022/04/28 08:53:18;;;;;;;8.15;4.65;;;32.10;27.40;;;;;;4959436;28;20039;-68
2022/04/28 08:55:45;;;;;;;16.52;5.15;;;32.70;26.70;;;;;;4947848;28;20054;-68
2022/04/28 08:58:11;;;;;;;13.60;5.22;;;31.00;27.90;;;;;;4949378;28;20059;-69
2022/04/28 09:00:42;;;;;;;12.13;5.10;;;30.20;28.70;;;;;;4930809;28;20805;-68
2022/04/28 09:03:31;;;;;;;12.55;5.10;;;29.00;29.30;;;;;;4939766;28;20038;-68
2022/04/28 09:06:29;;;;;;;11.02;4.40;;;29.60;28.90;;;;;;4966321;28;20400;-67
2022/04/28 09:09:16;;;;;;;13.45;5.30;;;30.20;28.90;;;;;;4954236;28;20054;-68
2022/04/28 09:12:03;;;;;;;9.15;5.40;;;31.10;28.60;;;;;;4942305;28;20101;-65
2022/04/28 09:14:46;;;;;;;9.60;5.32;;;30.50;28.40;;;;;;4955216;28;20089;-67
2022/04/28 09:17:15;;;;;;;9.38;5.00;;;31.20;28.50;;;;;;4941439;28;20636;-68
2022/04/28 09:19:41;;;;;;;13.57;5.30;;;32.40;27.90;;;;;;4962199;28;20022;-69
2022/04/28 09:22:24;;;;;;;17.13;4.95;;;33.60;27.00;;;;;;4946236;28;20541;-69
2022/04/28 09:24:57;;;;;;;7.35;4.13;;;34.30;26.50;;;;;;4945589;28;20031;-69
2022/04/28 09:27:25;;;;;;;11.32;4.90;;;35.90;25.60;;;;;;4945954;28;20514;-69
2022/04/28 09:29:54;;;;;;;7.28;4.97;;;36.80;25.40;;;;;;4946121;28;20031;-67
2022/04/28 09:32:21;;;;;;;10.80;5.57;;;34.50;25.60;;;;;;4943470;28;20029;-68
2022/04/28 09:35:08;;;;;;;13.85;4.90;;;32.30;27.10;;;;;;4958043;28;20838;-69
2022/04/28 09:37:47;;;;;;;6.93;3.92;;;31.60;28.50;;;;;;4946507;28;20033;-68
2022/04/28 09:43:01;;;;;;;10.48;4.38;;;31.40;27.90;;;;;;4947851;28;20566;-69
2022/04/28 09:45:33;;;;;;;7.20;4.78;;;30.20;28.60;;;;;;4943217;28;20038;-68
2022/04/28 09:48:03;;;;;;;9.50;4.82;;;28.40;29.90;;;;;;4947036;28;20058;-69
2022/04/28 09:50:39;;;;;;;5.85;4.13;;;26.60;31.80;;;;;;4942967;28;20035;-66
2022/04/28 09:53:30;;;;;;;11.73;5.55;;;25.30;33.40;;;;;;4958702;28;20411;-68
2022/04/28 09:56:07;;;;;;;16.90;6.80;;;26.20;31.50;;;;;;4944248;28;20022;-68
2022/04/28 09:58:55;;;;;;;17.88;4.90;;;26.30;31.60;;;;;;4944879;28;20026;-68
2022/04/28 10:01:21;;;;;;;12.25;4.97;;;25.90;32.60;;;;;;4946949;28;20043;-68
2022/04/28 10:03:47;;;;;;;15.30;7.10;;;25.60;34.30;;;;;;4946962;28;20027;-69
2022/04/28 10:06:18;;;;;;;10.38;5.35;;;26.80;31.40;;;;;;4943293;28;20027;-68
2022/04/28 10:08:58;;;;;;;9.70;4.90;;;26.70;30.60;;;;;;4959345;28;20043;-68
2022/04/28 10:11:26;;;;;;;7.88;4.82;;;25.60;31.60;;;;;;4952225;28;20035;-68
2022/04/28 10:13:55;;;;;;;8.13;5.00;;;24.60;33.30;;;;;;4949779;28;20499;-68
2022/04/28 10:16:23;;;;;;;8.13;4.25;;;23.70;33.80;;;;;;4943653;28;20054;-69
2022/04/28 10:19:15;;;;;;;8.25;4.60;;;23.80;35.60;;;;;;4947602;28;20018;-68
2022/04/28 10:21:50;;;;;;;8.30;5.38;;;25.30;32.60;;;;;;4940991;28;20027;-68
2022/04/28 10:32:59;;;;;;;5.63;3.92;;;25.10;32.60;;;;;;4943900;28;20153;-67
2022/04/28 10:35:44;;;;;;;9.73;4.05;;;24.40;34.10;;;;;;4942925;28;20396;-68
2022/04/28 10:38:31;;;;;;;8.70;4.15;;;23.70;35.30;;;;;;4958287;28;20035;-68
2022/04/28 10:40:59;;;;;;;6.53;4.25;;;23.10;36.40;;;;;;4957705;28;20027;-68
2022/04/28 10:43:33;;;;;;;12.90;5.00;;;22.60;37.80;;;;;;4960299;28;20039;-68
2022/04/28 10:46:08;;;;;;;8.15;4.18;;;22.40;38.30;;;;;;4956583;28;20043;-68
2022/04/28 10:48:42;;;;;;;7.22;4.60;;;22.40;38.60;;;;;;4955612;28;20483;-68
2022/04/28 10:51:19;;;;;;;10.20;4.43;;;22.90;38.10;;;;;;4954261;28;20039;-68
2022/04/28 10:54:11;;;;;;;8.48;5.00;;;24.10;35.70;;;;;;4943295;28;20045;-68
2022/04/28 10:56:40;;;;;;;11.93;4.93;;;23.60;34.80;;;;;;4954815;28;20034;-67
2022/04/28 10:59:37;;;;;;;13.25;5.43;;;22.60;36.90;;;;;;4941186;28;20054;-67
2022/04/28 11:02:26;;;;;;;11.10;5.00;;;22.80;36.80;;;;;;4956046;28;20168;-67
2022/04/28 11:05:01;;;;;;;5.32;3.97;;;23.00;36.00;;;;;;4956478;28;20030;-69
2022/04/28 11:07:29;;;;;;;6.07;3.77;;;22.40;36.70;;;;;;4957067;28;20038;-68
2022/04/28 11:10:01;;;;;;;6.53;4.43;;;21.90;37.80;;;;;;4956142;28;20282;-71
2022/04/28 11:12:37;;;;;;;25.00;9.20;;;21.50;37.20;;;;;;4946183;28;20046;-71
2022/04/28 11:15:10;;;;;;;6.75;4.30;;;21.40;38.50;;;;;;4962471;28;20027;-72
2022/04/28 11:17:41;;;;;;;6.60;3.10;;;21.40;38.20;;;;;;4943930;28;20023;-71
2022/04/28 11:20:12;;;;;;;9.35;4.10;;;21.40;38.50;;;;;;4959136;28;20279;-71
2022/04/28 11:22:43;;;;;;;5.63;3.47;;;21.80;37.00;;;;;;4946469;28;20074;-72
2022/04/28 11:25:12;;;;;;;6.00;3.60;;;22.20;35.90;;;;;;4939884;28;20122;-70
2022/04/28 11:27:41;;;;;;;6.55;4.00;;;22.70;35.90;;;;;;4946095;28;20027;-69
2022/04/28 11:30:15;;;;;;;6.25;3.75;;;23.00;34.00;;;;;;4945949;28;20031;-71
2022/04/28 11:32:58;;;;;;;16.85;7.47;;;23.40;34.60;;;;;;4953565;28;20395;-71
2022/04/28 11:35:35;;;;;;;6.97;3.67;;;23.50;36.10;;;;;;4958567;28;20034;-69
2022/04/28 11:38:00;;;;;;;10.25;3.72;;;23.40;35.00;;;;;;4957104;28;20031;-69
2022/04/28 11:40:26;;;;;;;5.63;3.40;;;22.70;35.10;;;;;;4958696;28;20781;-69
2022/04/28 11:42:57;;;;;;;10.32;3.72;;;22.50;34.90;;;;;;4959805;28;20042;-69
2022/04/28 11:45:24;;;;;;;7.68;3.13;;;22.40;35.40;;;;;;4946124;28;20037;-69
2022/04/28 11:47:51;;;;;;;5.35;3.28;;;22.30;35.60;;;;;;4956569;28;20403;-69
2022/04/28 11:50:19;;;;;;;5.38;3.47;;;22.40;35.20;;;;;;4960084;28;20031;-69
2022/04/28 11:52:56;;;;;;;8.93;4.10;;;22.20;35.80;;;;;;4944147;28;20038;-69
2022/04/28 11:55:26;;;;;;;5.25;3.67;;;22.00;35.30;;;;;;4944318;28;20027;-69
2022/04/28 11:57:53;;;;;;;6.97;3.78;;;21.70;36.20;;;;;;4939704;28;20094;-69
2022/04/28 12:00:19;;;;;;;9.20;3.75;;;21.80;36.30;;;;;;4959615;28;20476;-69
2022/04/28 12:02:45;;;;;;;7.47;3.60;;;22.00;37.40;;;;;;4938940;28;20122;-69
2022/04/28 12:05:19;;;;;;;9.45;4.07;;;21.90;36.60;;;;;;4942197;28;20142;-69
2022/04/28 12:07:52;;;;;;;5.78;3.10;;;21.80;37.10;;;;;;4956378;28;20418;-69
2022/04/28 12:16:09;;;;;;;5.70;3.55;;;21.40;38.50;;;;;;4959709;28;20874;-69
2022/04/28 12:21:24;;;;;;;6.55;3.78;;;20.80;39.70;;;;;;4957023;28;20110;-69
2022/04/28 12:23:57;;;;;;;6.72;4.10;;;20.60;38.60;;;;;;4954257;28;20034;-69
2022/04/28 12:26:26;;;;;;;5.10;3.45;;;20.30;38.90;;;;;;4959179;28;20038;-69
2022/04/28 12:28:54;;;;;;;7.05;3.22;;;20.20;39.10;;;;;;4957530;28;20050;-69
2022/04/28 12:31:29;;;;;;;10.35;3.40;;;20.20;40.30;;;;;;4957743;28;20035;-69
2022/04/28 12:33:55;;;;;;;7.93;3.08;;;20.30;39.10;;;;;;4956269;28;20035;-69
2022/04/28 12:36:21;;;;;;;6.47;3.67;;;20.60;39.60;;;;;;4958061;28;20126;-69
2022/04/28 12:38:56;;;;;;;7.45;3.55;;;20.80;39.00;;;;;;4955716;28;20039;-70
2022/04/28 12:41:27;;;;;;;7.43;3.60;;;21.00;39.40;;;;;;4956891;28;20039;-69
2022/04/28 12:44:00;;;;;;;6.88;3.67;;;21.30;38.80;;;;;;4946093;28;20876;-69
2022/04/28 12:46:29;;;;;;;12.45;3.60;;;21.40;37.90;;;;;;4948858;28;20133;-70
2022/04/28 12:48:56;;;;;;;7.05;3.40;;;21.40;37.30;;;;;;4961884;28;20273;-69
2022/04/28 12:51:28;;;;;;;5.65;3.20;;;21.30;37.90;;;;;;4959386;28;20766;-70
2022/04/28 12:54:19;;;;;;;6.43;3.05;;;21.10;39.10;;;;;;4962417;28;20440;-70
2022/04/28 12:56:46;;;;;;;6.10;3.42;;;20.70;39.70;;;;;;4953415;28;20507;-69
2022/04/28 12:59:14;;;;;;;5.10;3.08;;;20.50;38.90;;;;;;4960139;28;20035;-69
2022/04/28 13:01:41;;;;;;;8.40;3.50;;;20.60;38.30;;;;;;4958895;28;20526;-69
2022/04/28 13:04:14;;;;;;;5.95;3.20;;;20.50;38.60;;;;;;4957108;28;20042;-69
2022/04/28 13:06:45;;;;;;;7.30;2.92;;;20.30;39.00;;;;;;4947422;28;20035;-69
2022/04/28 13:09:13;;;;;;;6.45;3.13;;;20.40;39.40;;;;;;4946881;28;20038;-69
2022/04/28 13:11:40;;;;;;;5.38;3.10;;;20.70;38.00;;;;;;4960905;28;20166;-69
2022/04/28 13:14:12;;;;;;;8.23;2.70;;;20.70;39.30;;;;;;4961187;28;20031;-69
2022/04/28 13:16:39;;;;;;;5.32;2.70;;;21.00;40.10;;;;;;4964226;28;20399;-69
2022/04/28 13:19:05;;;;;;;6.82;2.72;;;21.30;39.10;;;;;;4958884;28;20035;-69
2022/04/28 13:21:32;;;;;;;7.22;2.80;;;21.50;38.50;;;;;;4964867;28;20057;-70
2022/04/28 13:23:58;;;;;;;5.10;2.85;;;21.40;37.80;;;;;;4962002;28;20040;-69
2022/04/28 13:26:26;;;;;;;6.53;3.00;;;21.20;38.70;;;;;;4949727;28;20035;-70
2022/04/28 13:28:53;;;;;;;8.25;3.25;;;21.10;39.00;;;;;;4961843;28;20043;-69
2022/04/28 13:31:20;;;;;;;6.93;2.80;;;20.80;38.20;;;;;;4958907;28;20031;-69
2022/04/28 13:33:47;;;;;;;6.10;3.00;;;20.40;39.20;;;;;;4961151;28;20486;-69
2022/04/28 13:36:14;;;;;;;6.80;3.47;;;20.20;41.30;;;;;;4944865;28;20030;-68
2022/04/28 13:38:40;;;;;;;7.10;3.25;;;20.00;40.60;;;;;;4943859;28;20034;-69
2022/04/28 13:41:07;;;;;;;6.45;2.85;;;19.90;41.50;;;;;;4958063;28;20475;-68
2022/04/28 13:43:33;;;;;;;6.85;3.13;;;19.90;40.90;;;;;;4947650;28;20070;-69